Time;durP1;ratioP1;P1;durP2;ratioP2;P2;SDS_P1;SDS_P2;PMS_P1;PMS_P2;Temp;Humidity;BMP_temperature;BMP_pressure;BME280_temperature;BME280_humidity;BME280_pressure;Samples;Min_cycle;Max_cycle;Signal;HPM_P1;HPM_P2
2021/05/13 00:00:36;;;;;;;;;;;;;;;11.55;65.83;98861.34;3523233;28;20356;-45
2021/05/13 00:02:18;;;;;;;;;;;;;;;11.55;66.07;98863.97;3523821;28;19935;-47
2021/05/13 00:03:59;;;;;;;;;;;;;;;11.54;65.83;98862.25;3522698;28;19981;-45
2021/05/13 00:05:41;;;;;;;;;;;;;;;11.53;65.86;98860.50;3524362;28;19928;-41
2021/05/13 00:07:22;;;;;;;;;;;;;;;11.51;65.50;98862.25;3522734;28;20388;-41
2021/05/13 00:09:03;;;;;;;;;;;;;;;11.49;66.50;98864.84;3523622;28;19954;-41
2021/05/13 00:10:45;;;;;;;;;;;;;;;11.48;66.42;98872.63;3524619;28;19963;-41
2021/05/13 00:12:37;;;;;;;;;;;;;;;11.46;66.97;98869.19;3525539;28;19932;-41
2021/05/13 00:14:18;;;;;;;;;;;;;;;11.44;67.65;98859.66;3513779;28;20408;-41
2021/05/13 00:15:59;;;;;;;;;;;;;;;11.43;68.12;98865.72;3520516;28;19927;-41
2021/05/13 00:17:41;;;;;;;;;;;;;;;11.43;69.03;98857.09;3526376;28;19981;-41
2021/05/13 00:19:23;;;;;;;;;;;;;;;11.39;67.70;98865.72;3525512;28;19927;-41
2021/05/13 00:21:04;;;;;;;;;;;;;;;11.38;68.99;98854.50;3525895;28;19935;-41
2021/05/13 00:22:45;;;;;;;;;;;;;;;11.36;69.16;98857.94;3525793;28;19934;-41
2021/05/13 00:24:26;;;;;;;;;;;;;;;11.33;68.42;98858.84;3525518;28;19985;-41
2021/05/13 00:26:07;;;;;;;;;;;;;;;11.31;67.41;98852.78;3526049;28;19928;-41
2021/05/13 00:27:49;;;;;;;;;;;;;;;11.29;67.20;98846.69;3525073;28;20036;-41
2021/05/13 00:29:30;;;;;;;;;;;;;;;11.27;67.94;98844.97;3526362;28;20450;-41
2021/05/13 00:31:11;;;;;;;;;;;;;;;11.25;68.89;98853.63;3525392;28;19953;-41
2021/05/13 00:32:53;;;;;;;;;;;;;;;11.23;68.40;98850.16;3525660;28;19936;-41
2021/05/13 00:34:34;;;;;;;;;;;;;;;11.22;67.99;98856.22;3525498;28;19980;-41
2021/05/13 00:36:16;;;;;;;;;;;;;;;11.21;67.66;98849.28;3525256;28;19928;-40
2021/05/13 00:37:57;;;;;;;;;;;;;;;11.20;69.50;98846.69;3525922;28;20449;-41
2021/05/13 00:39:38;;;;;;;;;;;;;;;11.17;68.45;98842.41;3525077;28;19970;-41
2021/05/13 00:41:19;;;;;;;;;;;;;;;11.16;68.54;98840.66;3526487;28;19980;-42
2021/05/13 00:43:01;;;;;;;;;;;;;;;11.15;69.97;98840.69;3524990;28;19934;-41
2021/05/13 00:44:42;;;;;;;;;;;;;;;11.12;69.46;98838.09;3525769;28;20308;-41
2021/05/13 00:46:24;;;;;;;;;;;;;;;11.09;68.80;98838.09;3525404;28;20312;-41
2021/05/13 00:48:12;;;;;;;;;;;;;;;11.06;69.68;98832.03;3524859;28;19928;-41
2021/05/13 00:49:54;;;;;;;;;;;;;;;11.05;68.95;98835.47;3525989;28;19973;-41
2021/05/13 00:51:35;;;;;;;;;;;;;;;11.03;69.35;98833.78;3524976;28;19997;-41
2021/05/13 00:53:17;;;;;;;;;;;;;;;11.03;69.79;98829.44;3526189;28;19978;-40
2021/05/13 00:54:58;;;;;;;;;;;;;;;11.03;69.95;98828.59;3524684;28;19963;-41
2021/05/13 00:56:39;;;;;;;;;;;;;;;10.99;68.84;98827.72;3525438;28;20372;-41
2021/05/13 00:58:24;;;;;;;;;;;;;;;10.97;69.50;98823.38;3525357;28;20024;-41
2021/05/13 01:00:28;;;;;;;;;;;;;;;10.93;69.17;98819.94;3524727;28;19928;-41
2021/05/13 01:02:08;;;;;;;;;;;;;;;10.89;69.87;98818.22;3511964;28;19928;-41
2021/05/13 01:03:50;;;;;;;;;;;;;;;10.85;69.66;98811.31;3523021;28;19970;-41
2021/05/13 01:05:32;;;;;;;;;;;;;;;10.80;70.01;98813.91;3525604;28;19934;-41
2021/05/13 01:07:13;;;;;;;;;;;;;;;10.78;69.51;98813.03;3525419;28;19932;-41
2021/05/13 01:08:54;;;;;;;;;;;;;;;10.76;70.38;98814.78;3524590;28;20397;-41
2021/05/13 01:10:36;;;;;;;;;;;;;;;10.74;70.31;98811.34;3525722;28;19928;-41
2021/05/13 01:12:19;;;;;;;;;;;;;;;10.73;70.78;98816.53;3524784;28;19928;-41
2021/05/13 01:14:03;;;;;;;;;;;;;;;10.71;71.60;98819.13;3515585;28;19932;-41
2021/05/13 01:15:48;;;;;;;;;;;;;;;10.68;71.58;98814.78;3523344;28;19927;-41
2021/05/13 01:17:39;;;;;;;;;;;;;;;10.67;71.40;98812.16;3525522;28;19982;-46
2021/05/13 01:19:21;;;;;;;;;;;;;;;10.66;72.35;98820.84;3524841;28;20348;-45
2021/05/13 01:21:02;;;;;;;;;;;;;;;10.64;72.54;98825.16;3524361;28;19962;-45
2021/05/13 01:22:46;;;;;;;;;;;;;;;10.60;72.28;98826.00;3524446;28;20405;-46
2021/05/13 01:24:27;;;;;;;;;;;;;;;10.55;71.29;98826.03;3524581;28;19928;-45
2021/05/13 01:26:09;;;;;;;;;;;;;;;10.53;71.69;98829.47;3525391;28;20431;-46
2021/05/13 01:27:55;;;;;;;;;;;;;;;10.51;72.60;98829.47;3525000;28;19927;-45
2021/05/13 01:29:36;;;;;;;;;;;;;;;10.51;73.00;98826.88;3524653;28;19951;-46
2021/05/13 01:31:18;;;;;;;;;;;;;;;10.48;73.29;98827.75;3525438;28;19986;-45
2021/05/13 01:33:00;;;;;;;;;;;;;;;10.46;73.42;98832.06;3524736;28;19931;-46
2021/05/13 01:34:42;;;;;;;;;;;;;;;10.43;72.82;98820.84;3525595;28;19927;-46
2021/05/13 01:36:23;;;;;;;;;;;;;;;10.40;73.13;98816.50;3524264;28;19935;-46
2021/05/13 01:38:06;;;;;;;;;;;;;;;10.39;73.01;98814.78;3524957;28;20330;-46
2021/05/13 01:39:47;;;;;;;;;;;;;;;10.35;71.73;98818.22;3524639;28;19927;-46
2021/05/13 01:41:28;;;;;;;;;;;;;;;10.33;71.29;98816.50;3524601;28;19971;-47
2021/05/13 01:43:09;;;;;;;;;;;;;;;10.34;72.46;98813.06;3525142;28;19945;-45
2021/05/13 01:44:51;;;;;;;;;;;;;;;10.33;72.63;98817.38;3524230;28;19928;-45
2021/05/13 01:46:32;;;;;;;;;;;;;;;10.32;73.18;98812.16;3525851;28;20399;-45
2021/05/13 01:48:13;;;;;;;;;;;;;;;10.30;73.70;98805.28;3524468;28;19932;-46
2021/05/13 01:49:55;;;;;;;;;;;;;;;10.29;73.68;98803.53;3524974;28;19973;-45
2021/05/13 01:51:36;;;;;;;;;;;;;;;10.27;72.40;98807.00;3524652;28;20301;-41
2021/05/13 01:53:18;;;;;;;;;;;;;;;10.23;72.24;98798.38;3524775;28;19981;-40
2021/05/13 01:54:59;;;;;;;;;;;;;;;10.23;73.14;98800.97;3524858;28;19993;-41
2021/05/13 01:56:40;;;;;;;;;;;;;;;10.24;73.76;98801.81;3523932;28;20449;-41
2021/05/13 01:58:21;;;;;;;;;;;;;;;10.24;74.42;98802.66;3525430;28;19935;-41
2021/05/13 02:00:03;;;;;;;;;;;;;;;10.21;73.41;98801.81;3524084;28;20806;-40
2021/05/13 02:01:44;;;;;;;;;;;;;;;10.20;73.56;98803.53;3524799;28;19928;-40
2021/05/13 02:03:25;;;;;;;;;;;;;;;10.15;72.55;98802.66;3523673;28;19927;-41
2021/05/13 02:05:07;;;;;;;;;;;;;;;10.14;73.55;98808.72;3524112;28;19935;-41
2021/05/13 02:06:48;;;;;;;;;;;;;;;10.12;72.75;98805.25;3525109;28;19974;-41
2021/05/13 02:08:30;;;;;;;;;;;;;;;10.09;72.98;98813.88;3524535;28;19942;-40
2021/05/13 02:10:12;;;;;;;;;;;;;;;10.09;72.57;98818.22;3525502;28;20040;-40
2021/05/13 02:11:53;;;;;;;;;;;;;;;10.08;73.09;98811.28;3524046;28;19936;-41
2021/05/13 02:13:34;;;;;;;;;;;;;;;10.07;72.94;98818.22;3518688;28;20308;-40
2021/05/13 02:15:16;;;;;;;;;;;;;;;10.07;74.21;98822.50;3523155;28;19979;-41
2021/05/13 02:16:57;;;;;;;;;;;;;;;10.06;74.89;98825.97;3524566;28;19932;-40
2021/05/13 02:18:39;;;;;;;;;;;;;;;10.03;74.56;98821.63;3523902;28;19967;-41
2021/05/13 02:20:22;;;;;;;;;;;;;;;10.02;73.74;98819.06;3523984;28;19928;-41
2021/05/13 02:22:03;;;;;;;;;;;;;;;10.00;74.32;98807.81;3525044;28;20322;-41
2021/05/13 02:23:45;;;;;;;;;;;;;;;10.01;74.20;98814.75;3524135;28;19971;-40
2021/05/13 02:25:29;;;;;;;;;;;;;;;9.98;74.32;98813.00;3525145;28;20300;-41
2021/05/13 02:27:10;;;;;;;;;;;;;;;9.96;74.47;98806.94;3523110;28;20388;-40
2021/05/13 02:28:51;;;;;;;;;;;;;;;9.96;75.45;98812.13;3524252;28;19932;-41
2021/05/13 02:30:32;;;;;;;;;;;;;;;9.98;75.50;98805.22;3524623;28;19932;-41
2021/05/13 02:32:13;;;;;;;;;;;;;;;10.00;75.81;98806.09;3523553;28;20022;-41
2021/05/13 02:33:54;;;;;;;;;;;;;;;10.01;76.41;98801.78;3524782;28;19953;-41
2021/05/13 02:35:36;;;;;;;;;;;;;;;10.00;76.77;98802.63;3523757;28;20300;-45
2021/05/13 02:37:19;;;;;;;;;;;;;;;9.99;77.01;98801.78;3524945;28;19928;-45
2021/05/13 02:39:01;;;;;;;;;;;;;;;9.99;76.88;98809.53;3523950;28;19932;-45
2021/05/13 02:40:42;;;;;;;;;;;;;;;9.99;77.01;98804.38;3523905;28;19928;-46
2021/05/13 02:42:23;;;;;;;;;;;;;;;9.99;76.91;98804.38;3523961;28;19977;-41
2021/05/13 02:44:05;;;;;;;;;;;;;;;10.00;77.36;98805.22;3523770;28;19934;-46
2021/05/13 02:45:46;;;;;;;;;;;;;;;9.99;77.34;98804.38;3510756;28;20433;-45
2021/05/13 02:47:27;;;;;;;;;;;;;;;9.99;77.39;98809.53;3520112;28;19978;-45
2021/05/13 02:49:08;;;;;;;;;;;;;;;10.00;77.49;98807.81;3525031;28;20014;-45
2021/05/13 02:50:49;;;;;;;;;;;;;;;10.01;77.38;98809.56;3523371;28;19928;-45
2021/05/13 02:52:30;;;;;;;;;;;;;;;10.00;76.82;98816.47;3524061;28;19938;-45
2021/05/13 02:54:12;;;;;;;;;;;;;;;9.96;77.18;98819.91;3524328;28;19931;-45
2021/05/13 02:55:53;;;;;;;;;;;;;;;9.95;77.61;98813.00;3523746;28;20308;-46
2021/05/13 02:57:35;;;;;;;;;;;;;;;9.95;77.98;98810.41;3524728;28;19927;-46
2021/05/13 02:59:17;;;;;;;;;;;;;;;9.97;78.27;98810.41;3523507;28;20016;-46
2021/05/13 03:01:08;;;;;;;;;;;;;;;9.97;78.24;98806.09;3524899;28;20363;-40
2021/05/13 03:02:49;;;;;;;;;;;;;;;9.99;78.17;98819.06;3523751;28;20431;-41
2021/05/13 03:04:30;;;;;;;;;;;;;;;10.00;78.17;98815.59;3523591;28;19934;-40
2021/05/13 03:06:11;;;;;;;;;;;;;;;10.03;77.71;98818.19;3524465;28;19934;-47
2021/05/13 03:07:53;;;;;;;;;;;;;;;10.05;77.11;98816.47;3523365;28;19982;-45
2021/05/13 03:09:37;;;;;;;;;;;;;;;10.05;76.31;98819.06;3525050;28;19928;-40
2021/05/13 03:11:19;;;;;;;;;;;;;;;10.09;76.52;98820.81;3523520;28;20016;-41
2021/05/13 03:13:01;;;;;;;;;;;;;;;10.12;77.23;98828.56;3522768;28;20403;-45
2021/05/13 03:14:44;;;;;;;;;;;;;;;10.15;77.48;98815.63;3523910;28;20417;-40
2021/05/13 03:16:25;;;;;;;;;;;;;;;10.18;77.32;98822.56;3524046;28;20411;-40
2021/05/13 03:18:07;;;;;;;;;;;;;;;10.20;77.12;98824.28;3523533;28;19927;-46
2021/05/13 03:19:52;;;;;;;;;;;;;;;10.23;77.57;98821.69;3523141;28;19997;-45
2021/05/13 03:21:35;;;;;;;;;;;;;;;10.24;78.23;98825.13;3524360;28;19936;-45
2021/05/13 03:23:22;;;;;;;;;;;;;;;10.25;78.67;98819.09;3523409;28;20423;-40
2021/05/13 03:25:06;;;;;;;;;;;;;;;10.26;78.47;98818.22;3524044;28;19981;-41
2021/05/13 03:26:57;;;;;;;;;;;;;;;10.29;77.79;98820.81;3524260;28;19990;-41
2021/05/13 03:28:39;;;;;;;;;;;;;;;10.35;77.06;98817.38;3523241;28;19939;-40
2021/05/13 03:30:24;;;;;;;;;;;;;;;10.40;77.17;98819.09;3524553;28;19971;-41
2021/05/13 03:32:05;;;;;;;;;;;;;;;10.49;76.67;98823.41;3523491;28;19978;-41
2021/05/13 03:33:46;;;;;;;;;;;;;;;10.56;76.73;98821.69;3524148;28;19935;-41
2021/05/13 03:35:28;;;;;;;;;;;;;;;10.64;77.40;98831.22;3523473;28;19990;-41
2021/05/13 03:37:09;;;;;;;;;;;;;;;10.70;77.79;98829.47;3523388;28;19936;-41
2021/05/13 03:38:50;;;;;;;;;;;;;;;10.72;77.63;98826.00;3524136;28;19980;-41
2021/05/13 03:40:32;;;;;;;;;;;;;;;10.73;77.44;98829.50;3523148;28;19931;-41
2021/05/13 03:42:13;;;;;;;;;;;;;;;10.73;77.83;98832.09;3524249;28;20416;-41
2021/05/13 03:43:54;;;;;;;;;;;;;;;10.73;78.08;98827.75;3522851;28;19928;-41
2021/05/13 03:45:36;;;;;;;;;;;;;;;10.77;77.43;98829.47;3525042;28;19973;-41
2021/05/13 03:47:17;;;;;;;;;;;;;;;10.81;76.99;98832.91;3526135;28;20018;-41
2021/05/13 03:48:58;;;;;;;;;;;;;;;10.84;75.79;98831.19;3525793;28;20365;-41
2021/05/13 03:50:39;;;;;;;;;;;;;;;10.91;76.19;98824.28;3526728;28;19971;-41
2021/05/13 03:52:20;;;;;;;;;;;;;;;10.97;75.65;98825.97;3525628;28;19978;-41
2021/05/13 03:54:01;;;;;;;;;;;;;;;11.06;75.55;98828.59;3526892;28;19928;-41
2021/05/13 03:55:46;;;;;;;;;;;;;;;11.10;74.76;98835.50;3525397;28;19934;-41
2021/05/13 03:57:28;;;;;;;;;;;;;;;11.13;74.75;98832.00;3526504;28;20372;-41
2021/05/13 03:59:12;;;;;;;;;;;;;;;11.15;74.11;98841.53;3525967;28;19986;-41
2021/05/13 04:01:07;;;;;;;;;;;;;;;11.18;73.58;98843.25;3525833;28;19928;-41
2021/05/13 04:02:48;;;;;;;;;;;;;;;11.20;74.40;98838.91;3526757;28;19928;-46
2021/05/13 04:04:29;;;;;;;;;;;;;;;11.21;74.41;98838.91;3525345;28;20449;-46
2021/05/13 04:06:12;;;;;;;;;;;;;;;11.25;74.65;98835.47;3526762;28;19931;-48
2021/05/13 04:07:53;;;;;;;;;;;;;;;11.29;74.21;98828.53;3525280;28;20427;-46
2021/05/13 04:09:34;;;;;;;;;;;;;;;11.34;73.66;98841.50;3525936;28;19927;-46
2021/05/13 04:11:16;;;;;;;;;;;;;;;11.36;74.07;98832.88;3525217;28;20001;-46
2021/05/13 04:13:01;;;;;;;;;;;;;;;11.40;73.61;98821.59;3525493;28;19947;-45
2021/05/13 04:14:42;;;;;;;;;;;;;;;11.46;73.58;98825.88;3526134;28;19928;-46
2021/05/13 04:16:27;;;;;;;;;;;;;;;11.52;73.43;98827.63;3525241;28;19974;-45
2021/05/13 04:18:08;;;;;;;;;;;;;;;11.59;73.32;98827.59;3526459;28;20445;-46
2021/05/13 04:19:49;;;;;;;;;;;;;;;11.69;73.07;98823.19;3525442;28;19959;-45
2021/05/13 04:21:30;;;;;;;;;;;;;;;11.81;71.86;98830.06;3525575;28;19927;-45
2021/05/13 04:23:12;;;;;;;;;;;;;;;11.92;72.34;98830.88;3526601;28;19927;-41
2021/05/13 04:24:53;;;;;;;;;;;;;;;12.00;71.86;98829.09;3525350;28;19932;-41
2021/05/13 04:26:36;;;;;;;;;;;;;;;12.09;70.89;98827.34;3526454;28;19935;-47
2021/05/13 04:28:17;;;;;;;;;;;;;;;12.22;71.13;98828.13;3525419;28;19974;-45
2021/05/13 04:29:58;;;;;;;;;;;;;;;12.31;69.67;98826.31;3526313;28;20415;-45
2021/05/13 04:31:39;;;;;;;;;;;;;;;12.36;68.61;98821.06;3524807;28;19989;-46
2021/05/13 04:33:20;;;;;;;;;;;;;;;12.46;68.55;98824.47;3525498;28;20014;-45
2021/05/13 04:35:02;;;;;;;;;;;;;;;12.58;67.64;98825.25;3525969;28;19934;-46
2021/05/13 04:36:43;;;;;;;;;;;;;;;12.62;66.87;98820.03;3525375;28;19942;-41
2021/05/13 04:38:24;;;;;;;;;;;;;;;12.65;67.23;98827.81;3526295;28;19927;-41
2021/05/13 04:40:06;;;;;;;;;;;;;;;12.66;66.99;98825.16;3524987;28;19971;-41
2021/05/13 04:41:50;;;;;;;;;;;;;;;12.65;65.69;98822.59;3526486;28;19953;-41
2021/05/13 04:43:31;;;;;;;;;;;;;;;12.63;65.74;98824.34;3525383;28;20408;-41
2021/05/13 04:45:13;;;;;;;;;;;;;;;12.65;66.14;98825.22;3525317;28;23523;-41
2021/05/13 04:46:58;;;;;;;;;;;;;;;12.67;66.02;98828.66;3525982;28;19927;-46
2021/05/13 04:48:54;;;;;;;;;;;;;;;12.66;66.67;98821.72;3525215;28;19967;-45
2021/05/13 04:50:35;;;;;;;;;;;;;;;12.63;67.35;98822.63;3512125;28;20393;-46
2021/05/13 04:52:17;;;;;;;;;;;;;;;12.64;66.05;98820.88;3523035;28;19927;-45
2021/05/13 04:53:58;;;;;;;;;;;;;;;12.63;66.42;98824.34;3525301;28;19966;-46
2021/05/13 04:55:39;;;;;;;;;;;;;;;12.66;66.48;98830.38;3525299;28;19931;-46
2021/05/13 04:57:22;;;;;;;;;;;;;;;12.70;66.84;98829.50;3524684;28;19928;-46
2021/05/13 04:59:03;;;;;;;;;;;;;;;12.76;67.21;98825.97;3525707;28;19931;-46
2021/05/13 05:00:45;;;;;;;;;;;;;;;12.79;66.73;98822.47;3524723;28;19975;-47
2021/05/13 05:02:26;;;;;;;;;;;;;;;12.82;64.79;98819.84;3525992;28;19967;-46
2021/05/13 05:04:07;;;;;;;;;;;;;;;12.84;64.70;98821.56;3525221;28;19963;-41
2021/05/13 05:05:48;;;;;;;;;;;;;;;12.83;64.21;98822.44;3525685;28;20038;-41
2021/05/13 05:07:29;;;;;;;;;;;;;;;12.83;63.52;98819.81;3524250;28;19934;-46
2021/05/13 05:09:11;;;;;;;;;;;;;;;12.88;64.04;98825.00;3525380;28;19928;-41
2021/05/13 05:10:52;;;;;;;;;;;;;;;12.95;64.04;98821.50;3526076;28;19974;-41
2021/05/13 05:12:34;;;;;;;;;;;;;;;13.03;63.17;98818.81;3524683;28;19971;-45
2021/05/13 05:14:15;;;;;;;;;;;;;;;13.09;63.41;98827.44;3524694;28;19935;-46
2021/05/13 05:15:56;;;;;;;;;;;;;;;13.13;62.13;98821.28;3524645;28;19927;-46
2021/05/13 05:17:37;;;;;;;;;;;;;;;13.19;62.64;98824.72;3525712;28;19978;-42
2021/05/13 05:19:19;;;;;;;;;;;;;;;13.21;62.04;98813.41;3525096;28;19928;-41
2021/05/13 05:21:00;;;;;;;;;;;;;;;13.22;62.02;98816.88;3525088;28;19927;-41
2021/05/13 05:22:41;;;;;;;;;;;;;;;13.23;62.54;98811.66;3525740;28;20345;-41
2021/05/13 05:24:22;;;;;;;;;;;;;;;13.24;62.30;98813.38;3524854;28;19967;-41
2021/05/13 05:26:03;;;;;;;;;;;;;;;13.30;62.43;98810.72;3525620;28;19971;-41
2021/05/13 05:27:48;;;;;;;;;;;;;;;13.38;62.48;98809.75;3524762;28;20442;-41
2021/05/13 05:29:29;;;;;;;;;;;;;;;13.44;62.46;98813.16;3525697;28;20320;-41
2021/05/13 05:31:10;;;;;;;;;;;;;;;13.50;61.55;98810.47;3525209;28;19950;-41
2021/05/13 05:32:51;;;;;;;;;;;;;;;13.56;62.20;98812.13;3524950;28;20282;-41
2021/05/13 05:34:32;;;;;;;;;;;;;;;13.64;62.34;98805.09;3525556;28;20277;-41
2021/05/13 05:36:14;;;;;;;;;;;;;;;13.77;61.85;98804.94;3524742;28;19978;-47
2021/05/13 05:37:55;;;;;;;;;;;;;;;13.89;59.17;98810.81;3525598;28;20065;-46
2021/05/13 05:39:37;;;;;;;;;;;;;;;13.96;58.53;98803.78;3524364;28;19928;-46
2021/05/13 05:41:18;;;;;;;;;;;;;;;13.95;57.90;98806.41;3525245;28;19928;-46
2021/05/13 05:43:00;;;;;;;;;;;;;;;13.92;57.96;98806.44;3524498;28;19927;-45
2021/05/13 05:44:41;;;;;;;;;;;;;;;13.89;58.99;98807.38;3524468;28;19942;-46
2021/05/13 05:46:22;;;;;;;;;;;;;;;13.84;58.88;98812.63;3525247;28;19943;-46
2021/05/13 05:48:04;;;;;;;;;;;;;;;13.85;58.93;98811.75;3525169;28;19988;-46
2021/05/13 05:49:45;;;;;;;;;;;;;;;13.83;59.15;98816.13;3525757;28;19970;-41
2021/05/13 05:51:26;;;;;;;;;;;;;;;13.95;59.24;98811.63;3524236;28;19977;-42
2021/05/13 05:53:08;;;;;;;;;;;;;;;14.05;58.01;98808.00;3524945;28;20350;-41
2021/05/13 05:54:49;;;;;;;;;;;;;;;14.17;57.42;98812.19;3524569;28;19970;-42
2021/05/13 05:56:30;;;;;;;;;;;;;;;14.30;58.17;98812.88;3524728;28;20407;-42
2021/05/13 05:58:12;;;;;;;;;;;;;;;14.39;57.86;98815.38;3523925;28;19928;-41
2021/05/13 05:59:53;;;;;;;;;;;;;;;14.50;57.52;98810.84;3524721;28;20331;-46
2021/05/13 06:01:37;;;;;;;;;;;;;;;14.59;57.67;98812.47;3511239;28;20024;-46
2021/05/13 06:03:18;;;;;;;;;;;;;;;14.67;57.49;98813.16;3520983;28;19927;-46
2021/05/13 06:05:00;;;;;;;;;;;;;;;14.63;56.30;98822.81;3525079;28;19928;-46
2021/05/13 06:06:41;;;;;;;;;;;;;;;14.64;55.45;98813.22;3524565;28;19942;-45
2021/05/13 06:08:22;;;;;;;;;;;;;;;14.62;54.39;98817.59;3524054;28;19983;-46
2021/05/13 06:10:05;;;;;;;;;;;;;;;14.70;53.35;98817.50;3524598;28;19978;-46
2021/05/13 06:11:47;;;;;;;;;;;;;;;14.74;53.67;98808.72;3523786;28;19965;-46
2021/05/13 06:13:28;;;;;;;;;;;;;;;14.82;53.89;98806.84;3520128;28;19929;-42
2021/05/13 06:15:11;;;;;;;;;;;;;;;14.94;53.27;98821.41;3520512;28;19989;-41
2021/05/13 06:16:52;;;;;;;;;;;;;;;15.04;52.81;98815.13;3524878;28;19979;-46
2021/05/13 06:18:47;;;;;;;;;;;;;;;15.16;51.95;98814.91;3524847;28;20206;-46
2021/05/13 06:20:29;;;;;;;;;;;;;;;15.32;51.74;98819.84;3524112;28;19967;-46
2021/05/13 06:22:10;;;;;;;;;;;;;;;15.46;52.02;98815.22;3525112;28;19980;-47
2021/05/13 06:23:53;;;;;;;;;;;;;;;15.60;50.98;98820.19;3523762;28;19978;-46
2021/05/13 06:25:35;;;;;;;;;;;;;;;15.69;51.71;98825.22;3525062;28;19932;-46
2021/05/13 06:27:16;;;;;;;;;;;;;;;15.80;50.43;98811.94;3524543;28;19935;-42
2021/05/13 06:28:58;;;;;;;;;;;;;;;15.91;51.32;98817.81;3524837;28;19953;-46
2021/05/13 06:30:41;;;;;;;;;;;;;;;15.97;50.19;98814.19;3524727;28;20393;-42
2021/05/13 06:32:23;;;;;;;;;;;;;;;15.88;50.13;98817.00;3524684;28;20018;-43
2021/05/13 06:34:05;;;;;;;;;;;;;;;15.76;49.32;98813.75;3524328;28;19932;-46
2021/05/13 06:35:46;;;;;;;;;;;;;;;15.63;49.32;98816.66;3523848;28;19927;-42
2021/05/13 06:37:27;;;;;;;;;;;;;;;15.65;50.37;98820.09;3525159;28;19992;-42
2021/05/13 06:39:09;;;;;;;;;;;;;;;15.74;50.73;98814.69;3523852;28;20431;-45
2021/05/13 06:40:50;;;;;;;;;;;;;;;15.86;49.83;98824.00;3524560;28;20012;-46
2021/05/13 06:42:31;;;;;;;;;;;;;;;16.06;49.28;98826.22;3524519;28;19944;-45
2021/05/13 06:44:13;;;;;;;;;;;;;;;16.16;49.36;98835.56;3523929;28;19935;-46
2021/05/13 06:45:54;;;;;;;;;;;;;;;16.17;49.61;98834.66;3524694;28;19939;-46
2021/05/13 06:47:35;;;;;;;;;;;;;;;16.04;48.60;98838.47;3523858;28;19949;-45
2021/05/13 06:49:17;;;;;;;;;;;;;;;16.00;49.64;98826.31;3524891;28;19927;-46
2021/05/13 06:50:58;;;;;;;;;;;;;;;16.03;48.89;98824.50;3523451;28;19934;-46
2021/05/13 06:52:39;;;;;;;;;;;;;;;16.04;48.53;98826.22;3524215;28;20040;-45
2021/05/13 06:54:20;;;;;;;;;;;;;;;15.90;48.49;98816.06;3524374;28;19974;-42
2021/05/13 06:56:02;;;;;;;;;;;;;;;15.83;48.59;98818.88;3523645;28;19973;-42
2021/05/13 06:57:43;;;;;;;;;;;;;;;15.77;48.99;98818.09;3524407;28;19927;-42
2021/05/13 06:59:25;;;;;;;;;;;;;;;15.74;49.18;98819.91;3523733;28;19932;-42
2021/05/13 07:01:06;;;;;;;;;;;;;;;15.67;49.17;98811.34;3524577;28;19989;-41
2021/05/13 07:02:47;;;;;;;;;;;;;;;15.79;50.39;98816.31;3523613;28;20348;-42
2021/05/13 07:04:29;;;;;;;;;;;;;;;16.03;49.92;98811.41;3524046;28;20416;-42
2021/05/13 07:06:10;;;;;;;;;;;;;;;16.35;50.01;98808.09;3522982;28;19927;-43
2021/05/13 07:07:51;;;;;;;;;;;;;;;16.70;48.85;98803.72;3524029;28;20186;-42
2021/05/13 07:09:32;;;;;;;;;;;;;;;17.08;48.50;98804.53;3523717;28;19935;-46
2021/05/13 07:11:14;;;;;;;;;;;;;;;17.33;46.01;98810.88;3523371;28;20026;-46
2021/05/13 07:12:56;;;;;;;;;;;;;;;17.36;47.17;98809.03;3525282;28;19974;-42
2021/05/13 07:14:45;;;;;;;;;;;;;;;17.22;46.63;98804.16;3523611;28;19952;-42
2021/05/13 07:16:26;;;;;;;;;;;;;;;17.10;47.19;98800.09;3523893;28;20457;-42
2021/05/13 07:18:11;;;;;;;;;;;;;;;17.11;47.67;98800.94;3521778;28;20400;-42
2021/05/13 07:19:52;;;;;;;;;;;;;;;17.14;47.04;98795.63;3523520;27;20378;-42
2021/05/13 07:21:33;;;;;;;;;;;;;;;17.07;47.80;98794.94;3529985;28;19927;-42
2021/05/13 07:23:15;;;;;;;;;;;;;;;16.98;47.73;98791.72;3528101;28;19932;-42
2021/05/13 07:24:56;;;;;;;;;;;;;;;16.88;47.37;98805.06;3524737;28;19931;-42
2021/05/13 07:26:37;;;;;;;;;;;;;;;16.75;48.30;98806.25;3523092;28;19932;-42
2021/05/13 07:28:18;;;;;;;;;;;;;;;16.60;48.14;98802.25;3524223;28;19928;-42
2021/05/13 07:30:00;;;;;;;;;;;;;;;16.51;48.90;98800.72;3523971;28;19928;-42
2021/05/13 07:31:41;;;;;;;;;;;;;;;16.36;48.96;98795.84;3523164;28;20285;-42
2021/05/13 07:33:22;;;;;;;;;;;;;;;16.16;49.04;98806.78;3524270;28;19928;-42
2021/05/13 07:35:04;;;;;;;;;;;;;;;15.98;49.75;98794.97;3523248;28;20460;-47
2021/05/13 07:36:45;;;;;;;;;;;;;;;15.92;50.01;98798.59;3524434;28;19990;-42
2021/05/13 07:38:26;;;;;;;;;;;;;;;15.93;49.40;98804.66;3523221;28;19932;-42
2021/05/13 07:40:08;;;;;;;;;;;;;;;15.97;49.09;98801.97;3523850;28;19935;-42
2021/05/13 07:41:53;;;;;;;;;;;;;;;16.02;48.30;98800.97;3523733;28;19927;-42
2021/05/13 07:43:35;;;;;;;;;;;;;;;16.01;47.42;98802.75;3523476;28;19971;-42
2021/05/13 07:45:17;;;;;;;;;;;;;;;16.06;47.71;98800.91;3523585;28;20391;-46
2021/05/13 07:46:59;;;;;;;;;;;;;;;16.09;46.36;98806.06;3523074;28;19928;-48
2021/05/13 07:48:41;;;;;;;;;;;;;;;16.02;46.66;98804.47;3524340;28;20415;-45
2021/05/13 07:50:24;;;;;;;;;;;;;;;15.88;47.46;98811.78;3523100;28;20415;-46
2021/05/13 07:52:05;;;;;;;;;;;;;;;15.78;47.63;98798.88;3523867;28;20273;-42
2021/05/13 07:53:46;;;;;;;;;;;;;;;15.68;47.66;98817.41;3522614;28;20281;-42
2021/05/13 07:55:28;;;;;;;;;;;;;;;15.70;47.74;98797.31;3523614;28;19985;-43
2021/05/13 07:57:10;;;;;;;;;;;;;;;15.77;47.94;98791.94;3524661;28;19973;-43
2021/05/13 07:58:51;;;;;;;;;;;;;;;15.90;48.03;98791.69;3523237;28;19970;-44
2021/05/13 08:00:33;;;;;;;;;;;;;;;16.01;48.00;98799.28;3524334;28;20277;-46
2021/05/13 08:02:14;;;;;;;;;;;;;;;16.17;47.80;98801.50;3523263;28;19940;-47
2021/05/13 08:03:55;;;;;;;;;;;;;;;16.33;47.46;98796.75;3523592;28;19928;-46
2021/05/13 08:05:36;;;;;;;;;;;;;;;16.28;46.80;98793.44;3523190;28;19971;-46
2021/05/13 08:07:19;;;;;;;;;;;;;;;16.41;46.93;98795.75;3523814;28;19928;-42
2021/05/13 08:09:01;;;;;;;;;;;;;;;16.47;47.45;98793.81;3522999;28;19935;-41
2021/05/13 08:10:42;;;;;;;;;;;;;;;16.61;44.96;98801.34;3523612;28;19927;-46
2021/05/13 08:12:23;;;;;;;;;;;;;;;16.78;45.79;98797.50;3524451;28;19928;-42
2021/05/13 08:14:05;;;;;;;;;;;;;;;16.90;45.54;98798.03;3521367;28;19939;-41
2021/05/13 08:15:47;;;;;;;;;;;;;;;17.00;44.50;98797.78;3523276;28;20374;-43
2021/05/13 08:17:28;;;;;;;;;;;;;;;17.05;44.42;98799.34;3523951;28;20027;-41
2021/05/13 08:19:09;;;;;;;;;;;;;;;16.99;44.49;98796.03;3522692;28;20377;-42
2021/05/13 08:20:51;;;;;;;;;;;;;;;16.86;45.14;98803.38;3523985;28;20392;-41
2021/05/13 08:22:33;;;;;;;;;;;;;;;16.67;44.93;98800.31;3522525;28;19935;-41
2021/05/13 08:24:15;;;;;;;;;;;;;;;16.55;46.25;98811.97;3523445;28;19928;-41
2021/05/13 08:25:56;;;;;;;;;;;;;;;16.45;45.79;98800.84;3523087;28;20396;-42
2021/05/13 08:27:38;;;;;;;;;;;;;;;16.45;46.77;98793.00;3522862;28;19928;-41
2021/05/13 08:29:19;;;;;;;;;;;;;;;16.49;46.14;98810.34;3523792;28;20061;-42
2021/05/13 08:31:01;;;;;;;;;;;;;;;16.43;46.85;98791.34;3522799;28;20419;-45
2021/05/13 08:32:42;;;;;;;;;;;;;;;16.50;46.64;98798.13;3526328;28;20010;-46
2021/05/13 08:34:23;;;;;;;;;;;;;;;16.60;46.50;98799.63;3525194;28;19967;-46
2021/05/13 08:36:04;;;;;;;;;;;;;;;16.72;46.04;98804.56;3526364;28;19939;-48
2021/05/13 08:37:46;;;;;;;;;;;;;;;16.88;45.73;98799.81;3525559;28;19983;-46
2021/05/13 08:39:27;;;;;;;;;;;;;;;17.09;44.48;98787.91;3525346;28;19978;-45
2021/05/13 08:41:09;;;;;;;;;;;;;;;17.36;43.41;98787.16;3525870;28;19935;-46
2021/05/13 08:42:50;;;;;;;;;;;;;;;17.67;44.10;98788.00;3524889;28;19951;-46
2021/05/13 08:44:32;;;;;;;;;;;;;;;17.89;42.36;98797.03;3526658;28;20002;-42
2021/05/13 08:46:15;;;;;;;;;;;;;;;17.85;42.62;98794.53;3524903;28;20020;-41
2021/05/13 08:47:57;;;;;;;;;;;;;;;17.82;43.87;98791.97;3525820;28;19927;-42
2021/05/13 08:49:38;;;;;;;;;;;;;;;17.78;43.67;98785.09;3525676;28;19989;-46
2021/05/13 08:51:20;;;;;;;;;;;;;;;17.76;42.27;98804.38;3525629;28;19931;-45